Country
Station

 

Weather  for  Yeoju Range  -  Korea (Republic of)    Korea (Republic of)

  
20 °C (68 °F)
    
 
 

Current METAR for Yeoju Range is :

RKSU 022128Z 16001KT 2400 BR FEW000 BKN120 20/19 A2971 RMK CIG100 FG FEW000

 

This is a report for Yeoju Range - Korea (Republic of).
 
The report was made 334 hours and 34 minutes ago, at 21:28 UTC .
The wind was blowing at a speed of 0.5 meters per second (1.2 miles per hour) from south/southeast (160°).
 
The temperature was 20 °C (68 °F), with a dew-point at 19 °C (66 °F).
The atmospheric pressure was 1006 hPa (29.71 inHg).
The relative humidity was 94.0%.
 
There were a few clouds at a height of 30 meters (100 feet) and broken clouds at a height of 3658 meters (12000 feet).
 
The overall visibility was 2400 meter (7874 feet).
 
Currently mist.

 
 
 
 

Country :   A   B   C   D   E   F   G   H   I   J   K   L   M   N   O   P   Q   R   S   T   U   V   W   Y   Z

 

Site Info  |  Disclaimer  |  Credits  |  Privacy
Contact us  |  Add to favorites
© 2013-2018 METARs - All rights reserved